sensor_id;sensor_type;location;lat;lon;timestamp;P1;durP1;ratioP1;P2;durP2;ratioP2
9422;SDS011;4750;49.506;10.400;2022-08-01T00:02:16;2.07;;;1.80;;
9422;SDS011;4750;49.506;10.400;2022-08-01T00:05:00;5.50;;;2.00;;
9422;SDS011;4750;49.506;10.400;2022-08-01T00:07:44;4.07;;;2.10;;
9422;SDS011;4750;49.506;10.400;2022-08-01T00:10:28;3.30;;;1.80;;
9422;SDS011;4750;49.506;10.400;2022-08-01T00:13:12;2.83;;;1.93;;
9422;SDS011;4750;49.506;10.400;2022-08-01T00:15:56;3.53;;;2.10;;
9422;SDS011;4750;49.506;10.400;2022-08-01T00:18:40;4.60;;;1.87;;
9422;SDS011;4750;49.506;10.400;2022-08-01T00:21:24;3.33;;;2.10;;
9422;SDS011;4750;49.506;10.400;2022-08-01T00:24:08;5.30;;;1.90;;
9422;SDS011;4750;49.506;10.400;2022-08-01T00:26:52;2.03;;;1.80;;
9422;SDS011;4750;49.506;10.400;2022-08-01T00:29:36;4.47;;;1.80;;
9422;SDS011;4750;49.506;10.400;2022-08-01T00:32:20;2.53;;;1.70;;
9422;SDS011;4750;49.506;10.400;2022-08-01T00:35:04;6.10;;;1.80;;
9422;SDS011;4750;49.506;10.400;2022-08-01T00:37:48;1.90;;;1.70;;
9422;SDS011;4750;49.506;10.400;2022-08-01T00:40:32;2.50;;;1.77;;
9422;SDS011;4750;49.506;10.400;2022-08-01T00:43:16;2.13;;;1.80;;
9422;SDS011;4750;49.506;10.400;2022-08-01T00:46:00;3.67;;;1.70;;
9422;SDS011;4750;49.506;10.400;2022-08-01T00:48:44;2.17;;;1.80;;
9422;SDS011;4750;49.506;10.400;2022-08-01T00:51:28;3.40;;;1.90;;
9422;SDS011;4750;49.506;10.400;2022-08-01T00:54:12;3.43;;;1.70;;
9422;SDS011;4750;49.506;10.400;2022-08-01T00:56:56;1.90;;;1.80;;
9422;SDS011;4750;49.506;10.400;2022-08-01T00:59:41;1.63;;;1.53;;
9422;SDS011;4750;49.506;10.400;2022-08-01T01:02:25;1.83;;;1.70;;
9422;SDS011;4750;49.506;10.400;2022-08-01T01:05:09;1.90;;;1.80;;
9422;SDS011;4750;49.506;10.400;2022-08-01T01:07:59;1.97;;;1.70;;
9422;SDS011;4750;49.506;10.400;2022-08-01T01:10:46;2.60;;;1.83;;
9422;SDS011;4750;49.506;10.400;2022-08-01T01:13:37;2.17;;;1.73;;
9422;SDS011;4750;49.506;10.400;2022-08-01T01:16:26;6.33;;;1.70;;
9422;SDS011;4750;49.506;10.400;2022-08-01T01:19:13;4.03;;;1.83;;
9422;SDS011;4750;49.506;10.400;2022-08-01T01:30:57;2.00;;;1.80;;
9422;SDS011;4750;49.506;10.400;2022-08-01T01:33:41;3.37;;;1.80;;
9422;SDS011;4750;49.506;10.400;2022-08-01T01:36:26;2.53;;;1.97;;
9422;SDS011;4750;49.506;10.400;2022-08-01T01:39:14;1.77;;;1.60;;
9422;SDS011;4750;49.506;10.400;2022-08-01T01:42:00;5.07;;;1.83;;
9422;SDS011;4750;49.506;10.400;2022-08-01T01:44:45;3.03;;;2.03;;
9422;SDS011;4750;49.506;10.400;2022-08-01T01:47:31;2.23;;;1.60;;
9422;SDS011;4750;49.506;10.400;2022-08-01T01:50:16;2.57;;;1.70;;
9422;SDS011;4750;49.506;10.400;2022-08-01T01:53:04;2.07;;;1.90;;
9422;SDS011;4750;49.506;10.400;2022-08-01T01:55:54;2.13;;;1.93;;
9422;SDS011;4750;49.506;10.400;2022-08-01T01:58:41;2.50;;;1.80;;
9422;SDS011;4750;49.506;10.400;2022-08-01T02:01:27;2.17;;;1.97;;
9422;SDS011;4750;49.506;10.400;2022-08-01T02:04:13;3.10;;;1.77;;
9422;SDS011;4750;49.506;10.400;2022-08-01T02:06:58;6.40;;;1.90;;
9422;SDS011;4750;49.506;10.400;2022-08-01T02:09:44;2.93;;;2.37;;
9422;SDS011;4750;49.506;10.400;2022-08-01T02:12:31;3.83;;;2.30;;
9422;SDS011;4750;49.506;10.400;2022-08-01T02:15:18;3.00;;;2.20;;
9422;SDS011;4750;49.506;10.400;2022-08-01T02:18:03;2.40;;;2.20;;
9422;SDS011;4750;49.506;10.400;2022-08-01T02:20:52;3.90;;;2.70;;
9422;SDS011;4750;49.506;10.400;2022-08-01T02:23:38;2.70;;;2.50;;
9422;SDS011;4750;49.506;10.400;2022-08-01T02:26:24;5.60;;;2.30;;
9422;SDS011;4750;49.506;10.400;2022-08-01T02:29:09;2.70;;;2.20;;
9422;SDS011;4750;49.506;10.400;2022-08-01T02:31:56;3.63;;;2.47;;
9422;SDS011;4750;49.506;10.400;2022-08-01T02:34:41;3.83;;;2.27;;
9422;SDS011;4750;49.506;10.400;2022-08-01T02:37:31;3.43;;;2.20;;
9422;SDS011;4750;49.506;10.400;2022-08-01T02:40:18;2.93;;;2.40;;
9422;SDS011;4750;49.506;10.400;2022-08-01T02:43:03;2.27;;;2.03;;
9422;SDS011;4750;49.506;10.400;2022-08-01T02:45:49;2.67;;;2.10;;
9422;SDS011;4750;49.506;10.400;2022-08-01T02:48:36;3.53;;;2.17;;
9422;SDS011;4750;49.506;10.400;2022-08-01T02:51:24;2.97;;;2.10;;
9422;SDS011;4750;49.506;10.400;2022-08-01T02:54:10;3.60;;;2.27;;
9422;SDS011;4750;49.506;10.400;2022-08-01T02:56:55;4.23;;;2.30;;
9422;SDS011;4750;49.506;10.400;2022-08-01T02:59:40;2.33;;;2.17;;
9422;SDS011;4750;49.506;10.400;2022-08-01T03:02:26;2.93;;;2.60;;
9422;SDS011;4750;49.506;10.400;2022-08-01T03:05:12;3.20;;;2.30;;
9422;SDS011;4750;49.506;10.400;2022-08-01T03:07:58;5.07;;;2.43;;
9422;SDS011;4750;49.506;10.400;2022-08-01T03:10:44;7.17;;;2.17;;
9422;SDS011;4750;49.506;10.400;2022-08-01T03:13:29;4.37;;;2.60;;
9422;SDS011;4750;49.506;10.400;2022-08-01T03:16:16;2.83;;;2.53;;
9422;SDS011;4750;49.506;10.400;2022-08-01T03:19:02;3.67;;;2.40;;
9422;SDS011;4750;49.506;10.400;2022-08-01T03:21:48;3.80;;;2.60;;
9422;SDS011;4750;49.506;10.400;2022-08-01T03:24:34;5.07;;;3.00;;
9422;SDS011;4750;49.506;10.400;2022-08-01T03:27:20;4.90;;;2.57;;
9422;SDS011;4750;49.506;10.400;2022-08-01T03:30:08;5.77;;;2.90;;
9422;SDS011;4750;49.506;10.400;2022-08-01T03:32:54;3.00;;;2.70;;
9422;SDS011;4750;49.506;10.400;2022-08-01T03:35:39;4.33;;;2.80;;
9422;SDS011;4750;49.506;10.400;2022-08-01T03:38:29;3.07;;;2.80;;
9422;SDS011;4750;49.506;10.400;2022-08-01T03:41:21;4.90;;;2.73;;
9422;SDS011;4750;49.506;10.400;2022-08-01T03:44:16;3.70;;;2.80;;
9422;SDS011;4750;49.506;10.400;2022-08-01T03:47:07;3.40;;;2.67;;
9422;SDS011;4750;49.506;10.400;2022-08-01T03:49:52;4.70;;;2.53;;
9422;SDS011;4750;49.506;10.400;2022-08-01T03:52:40;5.30;;;2.87;;
9422;SDS011;4750;49.506;10.400;2022-08-01T03:55:27;2.60;;;2.40;;
9422;SDS011;4750;49.506;10.400;2022-08-01T03:58:13;3.60;;;2.57;;
9422;SDS011;4750;49.506;10.400;2022-08-01T04:00:58;4.03;;;2.63;;
9422;SDS011;4750;49.506;10.400;2022-08-01T04:03:42;3.07;;;2.77;;
9422;SDS011;4750;49.506;10.400;2022-08-01T04:06:28;3.47;;;2.80;;
9422;SDS011;4750;49.506;10.400;2022-08-01T04:09:12;3.30;;;2.90;;
9422;SDS011;4750;49.506;10.400;2022-08-01T04:12:00;3.17;;;2.97;;
9422;SDS011;4750;49.506;10.400;2022-08-01T04:14:44;3.43;;;2.83;;
9422;SDS011;4750;49.506;10.400;2022-08-01T04:17:29;5.07;;;2.97;;
9422;SDS011;4750;49.506;10.400;2022-08-01T04:20:12;3.60;;;2.60;;
9422;SDS011;4750;49.506;10.400;2022-08-01T04:22:57;4.00;;;3.00;;
9422;SDS011;4750;49.506;10.400;2022-08-01T04:25:41;6.17;;;3.00;;
9422;SDS011;4750;49.506;10.400;2022-08-01T04:28:26;4.37;;;3.20;;
9422;SDS011;4750;49.506;10.400;2022-08-01T04:31:12;3.80;;;3.07;;
9422;SDS011;4750;49.506;10.400;2022-08-01T04:33:59;6.10;;;3.27;;
9422;SDS011;4750;49.506;10.400;2022-08-01T04:36:46;2.63;;;2.43;;
9422;SDS011;4750;49.506;10.400;2022-08-01T04:39:32;3.93;;;2.90;;
9422;SDS011;4750;49.506;10.400;2022-08-01T04:42:20;2.80;;;2.60;;
9422;SDS011;4750;49.506;10.400;2022-08-01T04:45:06;2.90;;;2.70;;
9422;SDS011;4750;49.506;10.400;2022-08-01T04:47:52;6.37;;;2.80;;
9422;SDS011;4750;49.506;10.400;2022-08-01T04:50:37;4.97;;;2.67;;
9422;SDS011;4750;49.506;10.400;2022-08-01T04:53:21;4.20;;;3.17;;
9422;SDS011;4750;49.506;10.400;2022-08-01T04:56:05;3.60;;;2.43;;
9422;SDS011;4750;49.506;10.400;2022-08-01T04:58:49;3.23;;;2.93;;
9422;SDS011;4750;49.506;10.400;2022-08-01T05:01:53;3.27;;;2.50;;
9422;SDS011;4750;49.506;10.400;2022-08-01T05:04:38;5.60;;;2.53;;
9422;SDS011;4750;49.506;10.400;2022-08-01T05:07:23;3.17;;;2.30;;
9422;SDS011;4750;49.506;10.400;2022-08-01T05:10:07;4.20;;;2.40;;
9422;SDS011;4750;49.506;10.400;2022-08-01T05:12:51;2.70;;;2.47;;
9422;SDS011;4750;49.506;10.400;2022-08-01T05:15:35;3.87;;;2.37;;
9422;SDS011;4750;49.506;10.400;2022-08-01T05:18:22;2.60;;;2.40;;
9422;SDS011;4750;49.506;10.400;2022-08-01T05:21:06;2.63;;;2.43;;
9422;SDS011;4750;49.506;10.400;2022-08-01T05:23:50;3.80;;;2.47;;
9422;SDS011;4750;49.506;10.400;2022-08-01T05:26:35;2.30;;;2.20;;
9422;SDS011;4750;49.506;10.400;2022-08-01T05:29:20;5.13;;;2.00;;
9422;SDS011;4750;49.506;10.400;2022-08-01T05:32:04;3.57;;;2.10;;
9422;SDS011;4750;49.506;10.400;2022-08-01T05:34:49;3.20;;;2.00;;
9422;SDS011;4750;49.506;10.400;2022-08-01T05:37:33;2.33;;;2.10;;
9422;SDS011;4750;49.506;10.400;2022-08-01T05:40:18;2.37;;;2.17;;
9422;SDS011;4750;49.506;10.400;2022-08-01T05:43:02;3.37;;;1.90;;
9422;SDS011;4750;49.506;10.400;2022-08-01T05:45:46;3.47;;;1.80;;
9422;SDS011;4750;49.506;10.400;2022-08-01T05:48:30;3.17;;;1.70;;
9422;SDS011;4750;49.506;10.400;2022-08-01T05:51:14;2.07;;;1.50;;
9422;SDS011;4750;49.506;10.400;2022-08-01T05:53:58;1.50;;;1.40;;
9422;SDS011;4750;49.506;10.400;2022-08-01T05:56:42;2.17;;;1.50;;
9422;SDS011;4750;49.506;10.400;2022-08-01T05:59:27;1.70;;;1.60;;
9422;SDS011;4750;49.506;10.400;2022-08-01T06:02:11;1.80;;;1.50;;
9422;SDS011;4750;49.506;10.400;2022-08-01T06:04:55;1.77;;;1.50;;
9422;SDS011;4750;49.506;10.400;2022-08-01T06:07:39;2.37;;;1.63;;
9422;SDS011;4750;49.506;10.400;2022-08-01T06:10:23;2.33;;;1.80;;
9422;SDS011;4750;49.506;10.400;2022-08-01T06:13:07;5.00;;;1.73;;
9422;SDS011;4750;49.506;10.400;2022-08-01T06:15:51;4.30;;;1.90;;
9422;SDS011;4750;49.506;10.400;2022-08-01T06:18:36;2.60;;;2.13;;
9422;SDS011;4750;49.506;10.400;2022-08-01T06:21:20;4.33;;;1.70;;
9422;SDS011;4750;49.506;10.400;2022-08-01T06:24:04;1.67;;;1.57;;
9422;SDS011;4750;49.506;10.400;2022-08-01T06:26:48;1.60;;;1.50;;
9422;SDS011;4750;49.506;10.400;2022-08-01T06:29:32;2.37;;;1.80;;
9422;SDS011;4750;49.506;10.400;2022-08-01T06:32:17;4.60;;;1.83;;
9422;SDS011;4750;49.506;10.400;2022-08-01T06:35:01;3.40;;;1.67;;
9422;SDS011;4750;49.506;10.400;2022-08-01T06:37:45;2.73;;;1.67;;
9422;SDS011;4750;49.506;10.400;2022-08-01T06:40:30;2.33;;;1.50;;
9422;SDS011;4750;49.506;10.400;2022-08-01T06:43:14;3.53;;;1.60;;
9422;SDS011;4750;49.506;10.400;2022-08-01T06:45:59;2.00;;;1.40;;
9422;SDS011;4750;49.506;10.400;2022-08-01T06:48:43;5.10;;;1.60;;
9422;SDS011;4750;49.506;10.400;2022-08-01T06:51:27;2.10;;;1.40;;
9422;SDS011;4750;49.506;10.400;2022-08-01T06:54:11;3.33;;;1.50;;
9422;SDS011;4750;49.506;10.400;2022-08-01T06:56:55;3.13;;;1.57;;
9422;SDS011;4750;49.506;10.400;2022-08-01T06:59:39;2.23;;;1.70;;
9422;SDS011;4750;49.506;10.400;2022-08-01T07:02:23;2.17;;;1.50;;
9422;SDS011;4750;49.506;10.400;2022-08-01T07:05:07;2.03;;;1.33;;
9422;SDS011;4750;49.506;10.400;2022-08-01T07:07:51;2.53;;;1.37;;
9422;SDS011;4750;49.506;10.400;2022-08-01T07:10:35;2.17;;;1.43;;
9422;SDS011;4750;49.506;10.400;2022-08-01T07:13:19;2.20;;;1.67;;
9422;SDS011;4750;49.506;10.400;2022-08-01T07:16:06;1.27;;;1.17;;
9422;SDS011;4750;49.506;10.400;2022-08-01T07:18:50;2.10;;;1.50;;
9422;SDS011;4750;49.506;10.400;2022-08-01T07:21:35;1.63;;;1.20;;
9422;SDS011;4750;49.506;10.400;2022-08-01T07:24:19;1.93;;;1.30;;
9422;SDS011;4750;49.506;10.400;2022-08-01T07:27:03;2.07;;;1.30;;
9422;SDS011;4750;49.506;10.400;2022-08-01T07:29:47;3.20;;;1.43;;
9422;SDS011;4750;49.506;10.400;2022-08-01T07:32:31;3.43;;;1.50;;
9422;SDS011;4750;49.506;10.400;2022-08-01T07:35:15;1.50;;;1.40;;
9422;SDS011;4750;49.506;10.400;2022-08-01T07:37:59;1.60;;;1.30;;
9422;SDS011;4750;49.506;10.400;2022-08-01T07:40:43;1.33;;;1.20;;
9422;SDS011;4750;49.506;10.400;2022-08-01T07:43:28;2.80;;;1.47;;
9422;SDS011;4750;49.506;10.400;2022-08-01T07:46:13;1.70;;;1.60;;
9422;SDS011;4750;49.506;10.400;2022-08-01T07:48:57;2.13;;;1.43;;
9422;SDS011;4750;49.506;10.400;2022-08-01T07:51:41;1.87;;;1.40;;
9422;SDS011;4750;49.506;10.400;2022-08-01T07:54:25;2.10;;;1.47;;
9422;SDS011;4750;49.506;10.400;2022-08-01T07:57:11;1.40;;;1.30;;
9422;SDS011;4750;49.506;10.400;2022-08-01T07:59:55;1.60;;;1.50;;
9422;SDS011;4750;49.506;10.400;2022-08-01T08:02:40;2.77;;;1.40;;
9422;SDS011;4750;49.506;10.400;2022-08-01T08:05:25;3.43;;;1.30;;
9422;SDS011;4750;49.506;10.400;2022-08-01T08:08:09;3.63;;;1.73;;
9422;SDS011;4750;49.506;10.400;2022-08-01T08:10:57;1.50;;;1.33;;
9422;SDS011;4750;49.506;10.400;2022-08-01T08:13:41;1.67;;;1.43;;
9422;SDS011;4750;49.506;10.400;2022-08-01T08:16:25;3.47;;;1.60;;
9422;SDS011;4750;49.506;10.400;2022-08-01T08:19:10;1.50;;;1.40;;
9422;SDS011;4750;49.506;10.400;2022-08-01T08:21:55;2.10;;;1.50;;
9422;SDS011;4750;49.506;10.400;2022-08-01T08:24:39;2.00;;;1.40;;
9422;SDS011;4750;49.506;10.400;2022-08-01T08:27:23;2.03;;;1.37;;
9422;SDS011;4750;49.506;10.400;2022-08-01T08:30:07;2.87;;;1.80;;
9422;SDS011;4750;49.506;10.400;2022-08-01T08:32:51;2.33;;;1.43;;
9422;SDS011;4750;49.506;10.400;2022-08-01T08:35:35;1.60;;;1.50;;
9422;SDS011;4750;49.506;10.400;2022-08-01T08:38:22;1.57;;;1.33;;
9422;SDS011;4750;49.506;10.400;2022-08-01T08:41:06;4.13;;;1.57;;
9422;SDS011;4750;49.506;10.400;2022-08-01T08:43:50;1.43;;;1.30;;
9422;SDS011;4750;49.506;10.400;2022-08-01T08:46:35;2.00;;;1.30;;
9422;SDS011;4750;49.506;10.400;2022-08-01T08:49:28;2.63;;;1.60;;
9422;SDS011;4750;49.506;10.400;2022-08-01T08:52:13;2.67;;;1.20;;
9422;SDS011;4750;49.506;10.400;2022-08-01T08:54:59;3.67;;;1.50;;
9422;SDS011;4750;49.506;10.400;2022-08-01T08:57:43;3.27;;;1.60;;
9422;SDS011;4750;49.506;10.400;2022-08-01T09:00:28;2.57;;;1.60;;
9422;SDS011;4750;49.506;10.400;2022-08-01T09:03:12;2.33;;;1.43;;
9422;SDS011;4750;49.506;10.400;2022-08-01T09:05:56;4.27;;;1.40;;
9422;SDS011;4750;49.506;10.400;2022-08-01T09:08:40;1.70;;;1.07;;
9422;SDS011;4750;49.506;10.400;2022-08-01T09:11:24;2.50;;;1.00;;
9422;SDS011;4750;49.506;10.400;2022-08-01T09:17:08;2.20;;;0.90;;
9422;SDS011;4750;49.506;10.400;2022-08-01T09:19:55;1.30;;;1.20;;
9422;SDS011;4750;49.506;10.400;2022-08-01T09:22:39;1.40;;;1.13;;
9422;SDS011;4750;49.506;10.400;2022-08-01T09:25:23;1.30;;;1.10;;
9422;SDS011;4750;49.506;10.400;2022-08-01T09:28:07;1.20;;;1.00;;
9422;SDS011;4750;49.506;10.400;2022-08-01T09:30:51;1.07;;;0.97;;
9422;SDS011;4750;49.506;10.400;2022-08-01T09:33:54;2.20;;;1.00;;
9422;SDS011;4750;49.506;10.400;2022-08-01T09:36:50;1.20;;;1.10;;
9422;SDS011;4750;49.506;10.400;2022-08-01T09:39:36;1.13;;;1.03;;
9422;SDS011;4750;49.506;10.400;2022-08-01T09:42:24;1.83;;;0.97;;
9422;SDS011;4750;49.506;10.400;2022-08-01T09:45:09;2.20;;;1.03;;
9422;SDS011;4750;49.506;10.400;2022-08-01T09:47:54;1.73;;;1.10;;
9422;SDS011;4750;49.506;10.400;2022-08-01T09:50:44;1.17;;;1.10;;
9422;SDS011;4750;49.506;10.400;2022-08-01T09:53:40;2.03;;;0.80;;
9422;SDS011;4750;49.506;10.400;2022-08-01T09:56:26;0.87;;;0.87;;
9422;SDS011;4750;49.506;10.400;2022-08-01T09:59:18;2.80;;;1.10;;
9422;SDS011;4750;49.506;10.400;2022-08-01T10:02:03;2.77;;;0.70;;
9422;SDS011;4750;49.506;10.400;2022-08-01T10:04:48;0.77;;;0.77;;
9422;SDS011;4750;49.506;10.400;2022-08-01T10:07:33;1.20;;;0.90;;
9422;SDS011;4750;49.506;10.400;2022-08-01T10:10:39;2.93;;;0.80;;
9422;SDS011;4750;49.506;10.400;2022-08-01T10:13:23;3.27;;;0.90;;
9422;SDS011;4750;49.506;10.400;2022-08-01T10:16:07;2.43;;;1.00;;
9422;SDS011;4750;49.506;10.400;2022-08-01T10:18:52;1.10;;;1.00;;
9422;SDS011;4750;49.506;10.400;2022-08-01T10:21:37;2.17;;;1.07;;
9422;SDS011;4750;49.506;10.400;2022-08-01T10:24:23;1.33;;;1.10;;
9422;SDS011;4750;49.506;10.400;2022-08-01T10:27:08;3.70;;;1.00;;
9422;SDS011;4750;49.506;10.400;2022-08-01T10:29:57;1.03;;;1.00;;
9422;SDS011;4750;49.506;10.400;2022-08-01T10:32:47;1.40;;;1.20;;
9422;SDS011;4750;49.506;10.400;2022-08-01T10:35:32;2.13;;;1.13;;
9422;SDS011;4750;49.506;10.400;2022-08-01T10:38:17;1.33;;;1.20;;
9422;SDS011;4750;49.506;10.400;2022-08-01T10:41:02;3.60;;;1.00;;
9422;SDS011;4750;49.506;10.400;2022-08-01T10:43:47;1.20;;;1.00;;
9422;SDS011;4750;49.506;10.400;2022-08-01T10:46:31;1.80;;;1.20;;
9422;SDS011;4750;49.506;10.400;2022-08-01T10:49:16;2.83;;;1.30;;
9422;SDS011;4750;49.506;10.400;2022-08-01T10:52:03;1.33;;;1.00;;
9422;SDS011;4750;49.506;10.400;2022-08-01T10:54:48;1.10;;;0.90;;
9422;SDS011;4750;49.506;10.400;2022-08-01T10:57:45;1.07;;;0.90;;
9422;SDS011;4750;49.506;10.400;2022-08-01T11:00:30;0.90;;;0.80;;
9422;SDS011;4750;49.506;10.400;2022-08-01T11:03:14;1.10;;;0.90;;
9422;SDS011;4750;49.506;10.400;2022-08-01T11:05:58;1.10;;;1.00;;
9422;SDS011;4750;49.506;10.400;2022-08-01T11:08:42;0.90;;;0.90;;
9422;SDS011;4750;49.506;10.400;2022-08-01T11:11:34;0.97;;;0.97;;
9422;SDS011;4750;49.506;10.400;2022-08-01T11:17:44;2.30;;;1.20;;
9422;SDS011;4750;49.506;10.400;2022-08-01T11:20:34;3.40;;;0.90;;
9422;SDS011;4750;49.506;10.400;2022-08-01T11:23:19;0.93;;;0.90;;
9422;SDS011;4750;49.506;10.400;2022-08-01T11:29:10;0.73;;;0.70;;
9422;SDS011;4750;49.506;10.400;2022-08-01T11:31:54;1.43;;;1.00;;
9422;SDS011;4750;49.506;10.400;2022-08-01T11:35:08;1.80;;;0.90;;
9422;SDS011;4750;49.506;10.400;2022-08-01T11:37:53;0.80;;;0.77;;
9422;SDS011;4750;49.506;10.400;2022-08-01T11:40:40;1.33;;;0.80;;
9422;SDS011;4750;49.506;10.400;2022-08-01T11:43:24;4.47;;;1.00;;
9422;SDS011;4750;49.506;10.400;2022-08-01T11:46:09;1.00;;;0.83;;
9422;SDS011;4750;49.506;10.400;2022-08-01T11:55:07;0.80;;;0.80;;
9422;SDS011;4750;49.506;10.400;2022-08-01T11:58:05;1.10;;;1.07;;
9422;SDS011;4750;49.506;10.400;2022-08-01T12:00:55;1.00;;;0.90;;
9422;SDS011;4750;49.506;10.400;2022-08-01T12:03:40;0.63;;;0.63;;
9422;SDS011;4750;49.506;10.400;2022-08-01T12:06:28;0.70;;;0.70;;
9422;SDS011;4750;49.506;10.400;2022-08-01T12:09:16;0.87;;;0.70;;
9422;SDS011;4750;49.506;10.400;2022-08-01T12:12:02;1.03;;;0.87;;
9422;SDS011;4750;49.506;10.400;2022-08-01T12:14:52;1.17;;;0.73;;
9422;SDS011;4750;49.506;10.400;2022-08-01T12:17:39;0.70;;;0.70;;
9422;SDS011;4750;49.506;10.400;2022-08-01T12:20:26;0.70;;;0.70;;
9422;SDS011;4750;49.506;10.400;2022-08-01T12:23:15;0.70;;;0.70;;
9422;SDS011;4750;49.506;10.400;2022-08-01T12:25:59;1.23;;;0.80;;
9422;SDS011;4750;49.506;10.400;2022-08-01T12:28:45;0.60;;;0.60;;
9422;SDS011;4750;49.506;10.400;2022-08-01T12:31:35;0.60;;;0.60;;
9422;SDS011;4750;49.506;10.400;2022-08-01T12:34:25;0.63;;;0.63;;
9422;SDS011;4750;49.506;10.400;2022-08-01T12:37:13;0.97;;;0.80;;
9422;SDS011;4750;49.506;10.400;2022-08-01T12:39:57;2.20;;;0.80;;
9422;SDS011;4750;49.506;10.400;2022-08-01T12:42:43;1.60;;;0.50;;
9422;SDS011;4750;49.506;10.400;2022-08-01T12:45:42;2.30;;;0.60;;
9422;SDS011;4750;49.506;10.400;2022-08-01T12:48:28;1.10;;;0.60;;
9422;SDS011;4750;49.506;10.400;2022-08-01T12:51:14;0.73;;;0.73;;
9422;SDS011;4750;49.506;10.400;2022-08-01T12:53:59;0.90;;;0.90;;
9422;SDS011;4750;49.506;10.400;2022-08-01T12:56:43;1.33;;;0.70;;
9422;SDS011;4750;49.506;10.400;2022-08-01T12:59:27;1.53;;;1.00;;
9422;SDS011;4750;49.506;10.400;2022-08-01T13:02:12;1.20;;;0.80;;
9422;SDS011;4750;49.506;10.400;2022-08-01T13:04:56;0.60;;;0.60;;
9422;SDS011;4750;49.506;10.400;2022-08-01T13:07:44;1.40;;;1.10;;
9422;SDS011;4750;49.506;10.400;2022-08-01T13:10:29;0.97;;;0.77;;
9422;SDS011;4750;49.506;10.400;2022-08-01T13:13:15;3.00;;;1.00;;
9422;SDS011;4750;49.506;10.400;2022-08-01T13:16:03;2.43;;;0.70;;
9422;SDS011;4750;49.506;10.400;2022-08-01T13:18:52;0.80;;;0.80;;
9422;SDS011;4750;49.506;10.400;2022-08-01T13:21:37;2.93;;;0.70;;
9422;SDS011;4750;49.506;10.400;2022-08-01T13:24:28;3.23;;;0.70;;
9422;SDS011;4750;49.506;10.400;2022-08-01T13:27:19;1.37;;;0.70;;
9422;SDS011;4750;49.506;10.400;2022-08-01T13:30:25;0.63;;;0.60;;
9422;SDS011;4750;49.506;10.400;2022-08-01T13:33:08;1.57;;;0.67;;
9422;SDS011;4750;49.506;10.400;2022-08-01T13:35:53;2.23;;;0.57;;
9422;SDS011;4750;49.506;10.400;2022-08-01T13:38:39;0.70;;;0.70;;
9422;SDS011;4750;49.506;10.400;2022-08-01T13:42:02;0.70;;;0.70;;
9422;SDS011;4750;49.506;10.400;2022-08-01T13:44:47;0.83;;;0.70;;
9422;SDS011;4750;49.506;10.400;2022-08-01T13:47:32;2.00;;;0.70;;
9422;SDS011;4750;49.506;10.400;2022-08-01T13:50:16;0.70;;;0.70;;
9422;SDS011;4750;49.506;10.400;2022-08-01T13:53:00;0.70;;;0.70;;
9422;SDS011;4750;49.506;10.400;2022-08-01T13:55:44;1.80;;;0.70;;
9422;SDS011;4750;49.506;10.400;2022-08-01T13:58:28;0.93;;;0.90;;
9422;SDS011;4750;49.506;10.400;2022-08-01T14:01:12;1.27;;;0.70;;
9422;SDS011;4750;49.506;10.400;2022-08-01T14:03:57;0.97;;;0.50;;
9422;SDS011;4750;49.506;10.400;2022-08-01T14:06:41;0.63;;;0.63;;
9422;SDS011;4750;49.506;10.400;2022-08-01T14:09:25;0.70;;;0.70;;
9422;SDS011;4750;49.506;10.400;2022-08-01T14:12:08;2.50;;;1.17;;
9422;SDS011;4750;49.506;10.400;2022-08-01T14:14:53;0.70;;;0.70;;
9422;SDS011;4750;49.506;10.400;2022-08-01T14:17:37;0.70;;;0.70;;
9422;SDS011;4750;49.506;10.400;2022-08-01T14:20:21;0.60;;;0.60;;
9422;SDS011;4750;49.506;10.400;2022-08-01T14:23:05;2.07;;;1.10;;
9422;SDS011;4750;49.506;10.400;2022-08-01T14:25:50;2.83;;;0.80;;
9422;SDS011;4750;49.506;10.400;2022-08-01T14:28:34;1.00;;;0.70;;
9422;SDS011;4750;49.506;10.400;2022-08-01T14:31:18;2.10;;;1.05;;
9422;SDS011;4750;49.506;10.400;2022-08-01T14:34:02;2.70;;;0.80;;
9422;SDS011;4750;49.506;10.400;2022-08-01T14:36:46;1.00;;;0.90;;
9422;SDS011;4750;49.506;10.400;2022-08-01T14:39:31;0.87;;;0.87;;
9422;SDS011;4750;49.506;10.400;2022-08-01T14:42:15;1.67;;;0.80;;
9422;SDS011;4750;49.506;10.400;2022-08-01T14:44:58;2.30;;;0.73;;
9422;SDS011;4750;49.506;10.400;2022-08-01T14:47:43;0.73;;;0.73;;
9422;SDS011;4750;49.506;10.400;2022-08-01T14:50:27;1.93;;;1.00;;
9422;SDS011;4750;49.506;10.400;2022-08-01T14:53:11;0.83;;;0.80;;
9422;SDS011;4750;49.506;10.400;2022-08-01T14:55:55;1.23;;;0.87;;
9422;SDS011;4750;49.506;10.400;2022-08-01T14:58:39;2.00;;;0.90;;
9422;SDS011;4750;49.506;10.400;2022-08-01T15:01:23;1.60;;;0.73;;
9422;SDS011;4750;49.506;10.400;2022-08-01T15:04:07;1.40;;;0.97;;
9422;SDS011;4750;49.506;10.400;2022-08-01T15:06:51;0.97;;;0.97;;
9422;SDS011;4750;49.506;10.400;2022-08-01T15:09:35;0.97;;;0.97;;
9422;SDS011;4750;49.506;10.400;2022-08-01T15:12:19;1.73;;;0.67;;
9422;SDS011;4750;49.506;10.400;2022-08-01T15:15:03;1.00;;;0.70;;
9422;SDS011;4750;49.506;10.400;2022-08-01T15:17:48;0.73;;;0.73;;
9422;SDS011;4750;49.506;10.400;2022-08-01T15:20:32;2.80;;;0.97;;
9422;SDS011;4750;49.506;10.400;2022-08-01T15:23:16;0.80;;;0.80;;
9422;SDS011;4750;49.506;10.400;2022-08-01T15:26:00;1.63;;;0.73;;
9422;SDS011;4750;49.506;10.400;2022-08-01T15:28:44;4.43;;;0.83;;
9422;SDS011;4750;49.506;10.400;2022-08-01T15:31:28;4.20;;;0.70;;
9422;SDS011;4750;49.506;10.400;2022-08-01T15:34:12;1.00;;;0.90;;
9422;SDS011;4750;49.506;10.400;2022-08-01T15:36:56;4.37;;;0.90;;
9422;SDS011;4750;49.506;10.400;2022-08-01T15:39:41;1.20;;;0.90;;
9422;SDS011;4750;49.506;10.400;2022-08-01T15:42:25;0.90;;;0.90;;
9422;SDS011;4750;49.506;10.400;2022-08-01T15:45:09;0.80;;;0.80;;
9422;SDS011;4750;49.506;10.400;2022-08-01T15:47:53;1.27;;;0.90;;
9422;SDS011;4750;49.506;10.400;2022-08-01T15:50:37;0.60;;;0.60;;
9422;SDS011;4750;49.506;10.400;2022-08-01T15:53:22;3.50;;;0.90;;
9422;SDS011;4750;49.506;10.400;2022-08-01T15:56:06;0.70;;;0.70;;
9422;SDS011;4750;49.506;10.400;2022-08-01T15:58:50;0.63;;;0.63;;
9422;SDS011;4750;49.506;10.400;2022-08-01T16:01:34;1.17;;;0.90;;
9422;SDS011;4750;49.506;10.400;2022-08-01T16:04:18;0.90;;;0.90;;
9422;SDS011;4750;49.506;10.400;2022-08-01T16:07:03;2.40;;;0.70;;
9422;SDS011;4750;49.506;10.400;2022-08-01T16:09:47;1.00;;;1.00;;
9422;SDS011;4750;49.506;10.400;2022-08-01T16:12:31;1.87;;;0.70;;
9422;SDS011;4750;49.506;10.400;2022-08-01T16:15:16;1.40;;;0.70;;
9422;SDS011;4750;49.506;10.400;2022-08-01T16:17:59;1.43;;;0.80;;
9422;SDS011;4750;49.506;10.400;2022-08-01T16:20:43;1.73;;;0.83;;
9422;SDS011;4750;49.506;10.400;2022-08-01T16:23:27;0.80;;;0.80;;
9422;SDS011;4750;49.506;10.400;2022-08-01T16:26:12;1.17;;;0.80;;
9422;SDS011;4750;49.506;10.400;2022-08-01T16:28:57;0.80;;;0.80;;
9422;SDS011;4750;49.506;10.400;2022-08-01T16:31:41;1.97;;;0.87;;
9422;SDS011;4750;49.506;10.400;2022-08-01T16:34:25;1.87;;;0.90;;
9422;SDS011;4750;49.506;10.400;2022-08-01T16:37:09;2.20;;;0.80;;
9422;SDS011;4750;49.506;10.400;2022-08-01T16:39:53;1.17;;;0.93;;
9422;SDS011;4750;49.506;10.400;2022-08-01T16:42:37;1.20;;;1.10;;
9422;SDS011;4750;49.506;10.400;2022-08-01T16:45:21;0.97;;;0.93;;
9422;SDS011;4750;49.506;10.400;2022-08-01T16:48:05;0.90;;;0.90;;
9422;SDS011;4750;49.506;10.400;2022-08-01T16:50:49;1.90;;;1.20;;
9422;SDS011;4750;49.506;10.400;2022-08-01T16:53:33;1.07;;;0.97;;
9422;SDS011;4750;49.506;10.400;2022-08-01T16:56:17;1.03;;;1.03;;
9422;SDS011;4750;49.506;10.400;2022-08-01T16:59:02;3.23;;;1.30;;
9422;SDS011;4750;49.506;10.400;2022-08-01T17:01:46;1.70;;;1.23;;
9422;SDS011;4750;49.506;10.400;2022-08-01T17:04:30;0.93;;;0.93;;
9422;SDS011;4750;49.506;10.400;2022-08-01T17:07:15;1.73;;;1.10;;
9422;SDS011;4750;49.506;10.400;2022-08-01T17:09:59;1.53;;;1.10;;
9422;SDS011;4750;49.506;10.400;2022-08-01T17:12:43;0.97;;;0.97;;
9422;SDS011;4750;49.506;10.400;2022-08-01T17:15:27;1.20;;;1.10;;
9422;SDS011;4750;49.506;10.400;2022-08-01T17:18:12;0.97;;;0.90;;